Pahoa, HI

2:07 PM HST on August 21, 2014 (GMT -1000)
Bradshaw Army Air Field | Change Station
CLOSE
Current Station
Airport
Location: Bradshaw AFB,
Elevation: 6191 ft
Nearby Weather Stations

Elev 6191 ft 19.76 °N, 155.55 °W | Updated 11 minutes ago

Scattered Clouds
Scattered Clouds
72 °F
Feels Like 72 °F
N
15
Wind Variable Wind from West
Gusts 20 mph

Today
High -- | Low -- °F
--% Chance of Precip.
Yesterday
High -- | Low -- °F
Precip. -- in
6:01 AM 6:43 PM
Waning Crescent, 11% visible
Pressure 29.95 in
Visibility 12.0 miles
Clouds Few 1800 ft
Scattered Clouds 5000 ft
Dew Point 58 °F
Humidity 61%
Rainfall 0.00 in
Snow Depth Not available.
UV 10 out of 12
Pollen Not available.
PM2.5 Good
Flu Activity Not available.
METAR PHSF 212356Z AUTO 26013G17KT 12SM FEW018 SCT050 22/15 A3033 RMK AO2 SLP141 T02240146 10231 20162 57019

More Conditions Fewer Conditions

Pressure 29.95 in
Visibility 12.0 miles
Clouds Few 1800 ft
Scattered Clouds 5000 ft
Dew Point 58 °F
Humidity 61%
Rainfall 0.00 in
Snow Depth Not available.
UV 10 out of 12
Pollen Not available.
PM2.5 Good
Flu Activity Not available.
METAR PHSF 212356Z AUTO 26013G17KT 12SM FEW018 SCT050 22/15 A3033 RMK AO2 SLP141 T02240146 10231 20162 57019

More Conditions Fewer Conditions

10-Day Weather Forecast

Almanac

Astronomy

Aug. 21, 2014 Rise Set
Actual Time 6:01 AM HST 6:43 PM HST
Civil Twilight 5:39 AM HST 7:05 PM HST
Nautical Twilight 5:12 AM HST 7:32 PM HST
Astronomical Twilight 4:45 AM HST 7:59 PM HST
Moon 2:54 AM HST (8/21) 4:08 PM HST (8/21)
Length of Visible Light 13h 26m
Length of Day
12h 41m
Tomorrow will be 1m 0s shorter.
Waning Crescent, 11% of the Moon is Illuminated
Today
Waning Crescent
Aug 25
New
Sep 2
First Quarter
Sep 8
Full
Sep 15
Last Quarter

Today's Extremes

State Highs State Lows

Community

WunderPhotos

Upload Photos

1,746,059 photos uploaded!

Nearby

Air Quality

  Air Quality AQ Index Pollutant
Yesterday Good
PM2.5
Current Good
PM2.5

Snow Depth

Station Depth Elevation
No new snow has been reported.

Earthquake Activity

City Distance Mag. Time & Date
No recent earthquake activity has been reported nearby.
Minimum magnitude displayed is 2.5.

Coastal Water Temperatures

Place Temperature
No Stations Reporting

Nearby Weather Stations